Time;durP1;ratioP1;P1;durP2;ratioP2;P2;SDS_P1;SDS_P2;PMS_P1;PMS_P2;Temp;Humidity;BMP_temperature;BMP_pressure;BME280_temperature;BME280_humidity;BME280_pressure;Samples;Min_cycle;Max_cycle;Signal;HPM_P1;HPM_P2
2024/02/06 00:02:01;;;;;;;7.20;4.47;;;9.20;99.90;;;;;;5028393;28;20420;-67
2024/02/06 00:04:26;;;;;;;8.10;4.90;;;9.30;99.90;;;;;;5030473;28;20523;-67
2024/02/06 00:06:52;;;;;;;5.87;4.53;;;9.30;99.90;;;;;;5028131;28;20456;-70
2024/02/06 00:09:18;;;;;;;9.77;4.70;;;9.20;99.90;;;;;;5029479;28;20189;-66
2024/02/06 00:11:43;;;;;;;8.33;4.83;;;9.20;99.90;;;;;;5029690;28;20289;-69
2024/02/06 00:14:10;;;;;;;9.60;5.30;;;9.20;99.90;;;;;;5029791;28;20190;-67
2024/02/06 00:16:39;;;;;;;8.17;5.27;;;9.20;99.90;;;;;;5029543;28;20308;-69
2024/02/06 00:19:05;;;;;;;9.87;5.13;;;9.20;99.90;;;;;;5029144;28;20920;-71
2024/02/06 00:21:32;;;;;;;8.13;5.13;;;9.20;99.90;;;;;;5029034;28;20425;-66
2024/02/06 00:23:59;;;;;;;6.90;4.70;;;9.20;99.90;;;;;;5028111;28;20792;-66
2024/02/06 00:26:25;;;;;;;7.20;4.47;;;9.20;99.90;;;;;;5028958;28;20507;-69
2024/02/06 00:28:50;;;;;;;6.50;4.80;;;9.20;99.90;;;;;;5029190;28;20428;-67
2024/02/06 00:31:16;;;;;;;4.90;4.40;;;9.30;99.90;;;;;;5028291;28;20178;-70
2024/02/06 00:33:42;;;;;;;6.57;4.77;;;9.30;99.90;;;;;;5029587;28;20384;-67
2024/02/06 00:36:07;;;;;;;8.07;6.30;;;9.30;99.90;;;;;;5027728;28;20197;-67
2024/02/06 00:38:33;;;;;;;7.50;5.67;;;9.30;99.90;;;;;;5029289;28;20206;-68
2024/02/06 00:40:59;;;;;;;8.00;5.70;;;9.30;99.90;;;;;;5027570;28;20190;-70
2024/02/06 00:43:25;;;;;;;8.20;5.50;;;9.30;99.90;;;;;;5028893;28;20213;-66
2024/02/06 00:45:51;;;;;;;7.60;6.17;;;9.30;99.90;;;;;;5029705;28;20258;-70
2024/02/06 00:48:17;;;;;;;7.00;5.30;;;9.30;99.90;;;;;;5028623;28;20481;-66
2024/02/06 00:50:42;;;;;;;6.90;5.10;;;9.20;99.90;;;;;;5030021;28;20473;-70
2024/02/06 00:53:08;;;;;;;8.70;5.57;;;9.30;99.90;;;;;;5027614;28;20750;-72
2024/02/06 00:55:34;;;;;;;6.00;4.83;;;9.20;99.90;;;;;;5027008;28;20741;-65
2024/02/06 00:57:59;;;;;;;7.87;5.20;;;9.20;99.90;;;;;;5029209;28;20300;-70
2024/02/06 01:00:26;;;;;;;7.17;5.20;;;9.30;99.90;;;;;;5028480;28;20269;-67
2024/02/06 01:02:51;;;;;;;6.50;4.37;;;9.30;99.90;;;;;;5029046;28;20185;-68
2024/02/06 01:05:17;;;;;;;10.63;5.60;;;9.30;99.90;;;;;;5027869;28;20428;-71
2024/02/06 01:07:43;;;;;;;10.20;4.90;;;9.30;99.90;;;;;;5028182;28;20182;-66
2024/02/06 01:10:09;;;;;;;11.30;5.60;;;9.30;99.90;;;;;;5028246;28;21013;-71
2024/02/06 01:12:34;;;;;;;6.80;4.77;;;9.30;99.90;;;;;;5027866;28;20270;-70
2024/02/06 01:15:00;;;;;;;6.33;5.03;;;9.30;99.90;;;;;;5028710;28;20222;-66
2024/02/06 01:17:26;;;;;;;6.43;4.70;;;9.40;99.90;;;;;;5027332;28;20214;-69
2024/02/06 01:19:52;;;;;;;7.53;4.23;;;9.40;99.90;;;;;;5029191;28;20424;-72
2024/02/06 01:22:18;;;;;;;7.33;5.33;;;9.40;99.90;;;;;;5026643;28;20561;-65
2024/02/06 01:24:44;;;;;;;8.10;5.17;;;9.40;99.90;;;;;;5029029;28;20421;-66
2024/02/06 01:27:10;;;;;;;6.30;4.53;;;9.40;99.90;;;;;;5027264;28;21240;-67
2024/02/06 01:29:36;;;;;;;11.07;5.20;;;9.50;99.90;;;;;;5027812;28;20421;-72
2024/02/06 01:32:03;;;;;;;7.33;5.00;;;9.50;99.90;;;;;;5027255;28;20390;-72
2024/02/06 01:34:28;;;;;;;9.30;5.27;;;9.50;99.90;;;;;;5026709;28;20431;-67
2024/02/06 01:36:54;;;;;;;10.33;4.30;;;9.50;99.90;;;;;;5027377;28;20472;-69
2024/02/06 01:39:19;;;;;;;6.43;4.53;;;9.50;99.90;;;;;;5027612;28;20189;-66
2024/02/06 01:41:45;;;;;;;7.37;5.17;;;9.50;99.90;;;;;;5027667;28;20607;-70
2024/02/06 01:44:11;;;;;;;7.23;4.00;;;9.50;99.90;;;;;;5027867;28;20213;-67
2024/02/06 01:46:37;;;;;;;7.10;4.50;;;9.50;99.90;;;;;;5027721;28;20395;-70
2024/02/06 01:49:08;;;;;;;5.80;4.83;;;9.50;99.90;;;;;;5026817;28;20184;-67
2024/02/06 01:51:37;;;;;;;7.73;5.00;;;9.50;99.90;;;;;;5027770;28;20182;-64
2024/02/06 01:54:03;;;;;;;10.47;4.40;;;9.50;99.90;;;;;;5027961;28;21455;-70
2024/02/06 01:56:30;;;;;;;5.53;4.83;;;9.50;99.90;;;;;;5026499;28;20429;-73
2024/02/06 01:58:56;;;;;;;6.67;5.10;;;9.50;99.90;;;;;;5028415;28;20449;-67
2024/02/06 02:01:22;;;;;;;8.77;5.00;;;9.50;99.90;;;;;;5026787;28;20600;-68
2024/02/06 02:03:51;;;;;;;9.00;4.17;;;9.50;99.90;;;;;;5028295;28;20521;-67
2024/02/06 02:06:18;;;;;;;7.20;3.90;;;9.60;99.90;;;;;;5025949;28;20430;-65
2024/02/06 02:08:44;;;;;;;6.93;4.20;;;9.50;99.90;;;;;;5027941;28;20441;-67
2024/02/06 02:11:10;;;;;;;8.10;5.17;;;9.60;99.90;;;;;;5026619;28;20492;-67
2024/02/06 02:13:37;;;;;;;5.27;4.00;;;9.50;99.90;;;;;;5028326;28;20564;-65
2024/02/06 02:16:04;;;;;;;7.47;4.17;;;9.60;99.90;;;;;;5027326;28;20190;-68
2024/02/06 02:18:34;;;;;;;6.03;3.93;;;9.60;99.90;;;;;;5026398;28;20465;-66
2024/02/06 02:21:04;;;;;;;6.57;4.33;;;9.50;99.90;;;;;;5056802;28;21140;-65
2024/02/06 02:23:30;;;;;;;6.30;4.50;;;9.60;99.90;;;;;;5026688;28;20484;-69
2024/02/06 02:25:56;;;;;;;7.17;4.50;;;9.60;99.90;;;;;;5027142;28;20433;-68
2024/02/06 02:28:22;;;;;;;7.47;4.50;;;9.60;99.90;;;;;;5025774;28;20192;-72
2024/02/06 02:30:47;;;;;;;10.10;4.20;;;9.60;99.90;;;;;;5027385;28;20426;-70
2024/02/06 02:33:14;;;;;;;5.27;3.97;;;9.60;99.90;;;;;;5027403;28;20991;-70
2024/02/06 02:35:39;;;;;;;11.37;5.70;;;9.60;99.90;;;;;;5026819;28;20263;-71
2024/02/06 02:38:05;;;;;;;4.73;3.70;;;9.60;99.90;;;;;;5027948;28;20540;-68
2024/02/06 02:40:31;;;;;;;7.23;4.90;;;9.60;99.90;;;;;;5026902;28;20637;-69
2024/02/06 02:42:58;;;;;;;7.73;4.27;;;9.60;99.90;;;;;;5028420;28;20411;-68
2024/02/06 02:45:24;;;;;;;9.90;4.30;;;9.60;99.90;;;;;;5027643;28;20285;-70
2024/02/06 02:47:49;;;;;;;11.03;5.40;;;9.60;99.90;;;;;;5031000;28;21015;-66
2024/02/06 02:50:15;;;;;;;7.40;4.80;;;9.60;99.90;;;;;;5029289;28;20924;-68
2024/02/06 02:52:41;;;;;;;7.07;4.60;;;9.60;99.90;;;;;;5031655;28;20542;-68
2024/02/06 02:55:06;;;;;;;9.17;3.80;;;9.60;99.90;;;;;;5031346;28;20178;-67
2024/02/06 02:57:32;;;;;;;7.70;3.77;;;9.70;99.90;;;;;;5029345;28;20216;-68
2024/02/06 02:59:58;;;;;;;9.07;4.80;;;9.70;99.90;;;;;;5031062;28;20436;-67
2024/02/06 03:02:24;;;;;;;6.17;4.00;;;9.70;99.90;;;;;;5029899;28;20858;-70
2024/02/06 03:04:50;;;;;;;7.57;4.03;;;9.70;99.90;;;;;;5031953;28;20194;-70
2024/02/06 03:07:16;;;;;;;6.53;4.73;;;9.60;99.90;;;;;;5031013;28;20195;-68
2024/02/06 03:09:42;;;;;;;7.13;3.93;;;9.60;99.90;;;;;;5032831;28;20530;-70
2024/02/06 03:12:08;;;;;;;8.57;4.50;;;9.70;99.90;;;;;;5031897;28;20186;-69
2024/02/06 03:14:33;;;;;;;8.27;4.33;;;9.60;99.90;;;;;;5031670;28;20487;-69
2024/02/06 03:16:59;;;;;;;6.50;4.13;;;9.60;99.90;;;;;;5031771;28;20986;-64
2024/02/06 03:19:25;;;;;;;9.00;4.57;;;9.60;99.90;;;;;;5030674;28;20178;-69
2024/02/06 03:21:50;;;;;;;10.30;4.53;;;9.60;99.90;;;;;;5032076;28;20189;-67
2024/02/06 03:24:16;;;;;;;11.50;4.83;;;9.60;99.90;;;;;;5031566;28;20182;-68
2024/02/06 03:26:42;;;;;;;8.70;4.33;;;9.60;99.90;;;;;;5031301;28;20190;-70
2024/02/06 03:29:07;;;;;;;7.77;3.83;;;9.60;99.90;;;;;;5030807;28;20182;-70
2024/02/06 03:31:33;;;;;;;10.20;4.00;;;9.70;99.90;;;;;;5030254;28;20236;-69
2024/02/06 03:33:59;;;;;;;4.40;4.00;;;9.70;99.90;;;;;;5032020;28;20189;-69
2024/02/06 03:36:24;;;;;;;10.10;4.30;;;9.60;99.90;;;;;;5028339;28;20671;-69
2024/02/06 03:38:50;;;;;;;6.93;4.43;;;9.60;99.90;;;;;;5031990;28;20335;-64
2024/02/06 03:41:15;;;;;;;7.27;3.87;;;9.60;99.90;;;;;;5030764;28;20190;-66
2024/02/06 03:43:41;;;;;;;9.03;4.10;;;9.60;99.90;;;;;;5030662;28;20183;-67
2024/02/06 03:46:07;;;;;;;4.80;3.93;;;9.60;99.90;;;;;;5030907;28;20194;-69
2024/02/06 03:48:34;;;;;;;10.30;4.20;;;9.60;99.90;;;;;;5030688;28;20182;-67
2024/02/06 03:51:03;;;;;;;5.90;4.03;;;9.70;99.90;;;;;;5030513;28;20605;-65
2024/02/06 03:53:29;;;;;;;7.70;3.53;;;9.70;99.90;;;;;;5031228;28;20436;-71
2024/02/06 03:55:55;;;;;;;10.10;4.40;;;9.70;99.90;;;;;;5029374;28;20939;-65
2024/02/06 03:58:20;;;;;;;6.43;3.60;;;9.60;99.90;;;;;;5030527;28;20236;-69
2024/02/06 04:00:49;;;;;;;5.50;3.63;;;9.60;99.90;;;;;;5031027;28;20193;-69
2024/02/06 04:03:17;;;;;;;8.20;4.50;;;9.70;99.90;;;;;;5031691;28;20191;-70
2024/02/06 04:05:43;;;;;;;9.33;3.87;;;9.70;99.90;;;;;;5030186;28;20429;-71
2024/02/06 04:08:09;;;;;;;7.90;3.70;;;9.70;99.90;;;;;;5031303;28;20425;-70
2024/02/06 04:10:36;;;;;;;10.90;4.80;;;9.70;99.90;;;;;;5030296;28;21403;-68
2024/02/06 04:13:03;;;;;;;6.90;3.60;;;9.70;99.90;;;;;;5031462;28;20194;-71
2024/02/06 04:15:31;;;;;;;7.47;4.10;;;9.70;99.90;;;;;;5029819;28;21117;-71
2024/02/06 04:17:56;;;;;;;6.67;3.80;;;9.70;99.90;;;;;;5029952;28;20504;-72
2024/02/06 04:20:22;;;;;;;8.07;4.03;;;9.70;99.90;;;;;;5029981;28;20424;-67
2024/02/06 04:22:48;;;;;;;6.07;3.53;;;9.70;99.90;;;;;;5031179;28;20191;-71
2024/02/06 04:25:13;;;;;;;5.23;3.50;;;9.70;99.90;;;;;;5030830;28;20193;-68
2024/02/06 04:27:39;;;;;;;5.87;4.13;;;9.70;99.90;;;;;;5028301;28;20277;-69
2024/02/06 04:30:05;;;;;;;5.87;3.60;;;9.80;99.90;;;;;;5030405;28;20246;-65
2024/02/06 04:32:31;;;;;;;7.23;3.63;;;9.70;99.90;;;;;;5029148;28;20193;-70
2024/02/06 04:34:57;;;;;;;8.43;3.73;;;9.70;99.90;;;;;;5030619;28;20420;-67
2024/02/06 04:37:22;;;;;;;8.03;4.03;;;9.80;99.90;;;;;;5029598;28;20209;-69
2024/02/06 04:39:48;;;;;;;5.80;3.43;;;9.70;99.90;;;;;;5030186;28;20190;-69
2024/02/06 04:42:14;;;;;;;9.10;3.63;;;9.80;99.90;;;;;;5029758;28;20193;-69
2024/02/06 04:44:40;;;;;;;9.83;3.47;;;9.80;99.90;;;;;;5029858;28;20284;-70
2024/02/06 04:47:05;;;;;;;9.90;3.67;;;9.80;99.90;;;;;;5028959;28;20197;-67
2024/02/06 04:49:31;;;;;;;7.93;4.03;;;9.80;99.90;;;;;;5030536;28;20185;-71
2024/02/06 04:51:57;;;;;;;6.20;3.87;;;9.80;99.90;;;;;;5030844;28;20217;-68
2024/02/06 04:54:22;;;;;;;9.20;4.27;;;9.80;99.90;;;;;;5030800;28;20197;-66
2024/02/06 04:56:48;;;;;;;5.30;3.90;;;9.80;99.90;;;;;;5029831;28;20170;-68
2024/02/06 04:59:14;;;;;;;10.30;3.87;;;9.80;99.90;;;;;;5030273;28;20189;-69
2024/02/06 05:01:40;;;;;;;8.53;4.37;;;9.80;99.90;;;;;;5029432;28;20308;-69
2024/02/06 05:04:07;;;;;;;11.80;4.40;;;9.80;99.90;;;;;;5031382;28;20541;-70
2024/02/06 05:06:32;;;;;;;7.63;3.90;;;9.80;99.90;;;;;;5029018;28;20185;-67
2024/02/06 05:08:59;;;;;;;6.60;3.50;;;9.80;99.90;;;;;;5029494;28;20429;-68
2024/02/06 05:11:24;;;;;;;7.53;3.83;;;9.80;99.90;;;;;;5030129;28;20223;-67
2024/02/06 05:13:50;;;;;;;7.80;3.70;;;9.80;99.90;;;;;;5029550;28;20914;-67
2024/02/06 05:16:17;;;;;;;5.97;3.83;;;9.80;99.90;;;;;;5029387;28;20239;-69
2024/02/06 05:18:42;;;;;;;8.13;3.77;;;9.80;99.90;;;;;;5030287;28;20205;-67
2024/02/06 05:21:08;;;;;;;7.90;3.60;;;9.80;99.90;;;;;;5030394;28;20430;-69
2024/02/06 05:23:34;;;;;;;9.70;3.80;;;9.80;99.90;;;;;;5030375;28;20173;-67
2024/02/06 05:25:59;;;;;;;7.27;4.53;;;9.90;99.90;;;;;;5029358;28;20708;-65
2024/02/06 05:28:25;;;;;;;6.50;4.37;;;9.90;99.90;;;;;;5029133;28;21210;-72
2024/02/06 05:30:51;;;;;;;6.60;4.10;;;9.80;99.90;;;;;;5028192;28;20185;-66
2024/02/06 05:33:17;;;;;;;11.60;5.63;;;9.80;99.90;;;;;;5030103;28;20600;-68
2024/02/06 05:35:42;;;;;;;11.60;5.10;;;9.80;99.90;;;;;;5028789;28;20178;-69
2024/02/06 05:38:08;;;;;;;6.87;4.13;;;9.70;99.90;;;;;;5030734;28;20268;-66
2024/02/06 05:40:34;;;;;;;8.20;4.30;;;9.70;99.90;;;;;;5029567;28;20185;-69
2024/02/06 05:42:59;;;;;;;8.20;4.93;;;9.70;99.90;;;;;;5029666;28;20189;-72
2024/02/06 05:45:25;;;;;;;8.10;4.80;;;9.70;99.90;;;;;;5024338;28;20594;-66
2024/02/06 05:47:51;;;;;;;8.97;4.90;;;9.70;99.90;;;;;;5026379;28;20202;-70
2024/02/06 05:50:17;;;;;;;9.63;4.90;;;9.80;99.90;;;;;;5027973;28;20252;-67
2024/02/06 05:52:42;;;;;;;8.40;4.67;;;9.80;99.90;;;;;;5028746;28;20178;-69
2024/02/06 05:55:09;;;;;;;10.50;4.40;;;9.80;99.90;;;;;;5028802;28;20653;-70
2024/02/06 05:57:34;;;;;;;6.80;4.50;;;9.80;99.90;;;;;;5028271;28;20294;-67
2024/02/06 06:00:03;;;;;;;6.53;4.37;;;9.70;99.90;;;;;;5028061;28;20511;-70
2024/02/06 06:02:29;;;;;;;8.10;4.53;;;9.80;99.90;;;;;;5028611;28;20436;-68
2024/02/06 06:04:54;;;;;;;9.57;5.13;;;9.70;99.90;;;;;;5026749;28;20447;-72
2024/02/06 06:07:20;;;;;;;9.57;4.60;;;9.70;99.90;;;;;;5028280;28;20203;-69
2024/02/06 06:09:46;;;;;;;6.23;4.77;;;9.80;99.90;;;;;;5044943;28;20179;-71
2024/02/06 06:12:11;;;;;;;5.13;4.40;;;9.80;99.90;;;;;;5028902;28;20189;-67
2024/02/06 06:14:37;;;;;;;8.50;4.87;;;9.80;99.90;;;;;;5030320;28;20652;-68
2024/02/06 06:17:03;;;;;;;11.50;4.63;;;9.80;99.90;;;;;;5028712;28;20229;-70
2024/02/06 06:19:28;;;;;;;10.70;4.93;;;9.80;99.90;;;;;;5031225;28;20218;-72
2024/02/06 06:21:54;;;;;;;8.60;4.93;;;9.80;99.90;;;;;;5032943;28;20260;-72
2024/02/06 06:24:20;;;;;;;8.87;5.00;;;9.80;99.90;;;;;;5031628;28;20255;-68
2024/02/06 06:26:46;;;;;;;7.87;4.63;;;9.70;99.90;;;;;;5032334;28;20280;-71
2024/02/06 06:29:12;;;;;;;7.23;5.10;;;9.80;99.90;;;;;;5028883;28;20552;-67
2024/02/06 06:31:38;;;;;;;8.97;5.47;;;9.70;99.90;;;;;;5030693;28;20432;-71
2024/02/06 06:34:04;;;;;;;6.10;4.50;;;9.70;99.90;;;;;;5033327;28;20250;-69
2024/02/06 06:36:30;;;;;;;6.40;4.63;;;9.80;99.90;;;;;;5032871;28;20251;-72
2024/02/06 06:38:58;;;;;;;9.70;5.17;;;9.80;99.90;;;;;;5033679;28;20479;-69
2024/02/06 06:41:25;;;;;;;8.83;5.47;;;9.80;99.90;;;;;;5032805;28;20772;-71
2024/02/06 06:43:52;;;;;;;7.70;4.43;;;9.80;99.90;;;;;;5032843;28;20433;-67
2024/02/06 06:46:17;;;;;;;7.57;5.20;;;9.80;99.90;;;;;;5031821;28;20548;-71
2024/02/06 06:48:43;;;;;;;10.93;6.90;;;9.90;99.90;;;;;;5033583;28;20447;-65
2024/02/06 06:51:09;;;;;;;6.47;5.17;;;9.90;99.90;;;;;;5032536;28;20198;-69
2024/02/06 06:53:34;;;;;;;11.10;5.90;;;9.90;99.90;;;;;;5033410;28;20182;-67
2024/02/06 06:56:00;;;;;;;8.60;5.90;;;9.90;99.90;;;;;;5031984;28;20191;-70
2024/02/06 06:58:26;;;;;;;8.20;5.20;;;9.80;99.90;;;;;;5033001;28;20279;-69
2024/02/06 07:00:53;;;;;;;9.40;5.40;;;9.80;99.90;;;;;;5032269;28;20186;-68
2024/02/06 07:03:19;;;;;;;9.33;5.20;;;9.90;99.90;;;;;;5032306;28;20606;-69
2024/02/06 07:05:45;;;;;;;8.03;5.30;;;9.90;99.90;;;;;;5032908;28;20420;-72
2024/02/06 07:08:10;;;;;;;10.77;6.07;;;9.80;99.90;;;;;;5030009;28;20924;-70
2024/02/06 07:10:36;;;;;;;8.33;5.50;;;9.80;99.90;;;;;;5031920;28;20448;-73
2024/02/06 07:13:02;;;;;;;8.00;5.60;;;9.80;99.90;;;;;;5031529;28;20178;-66
2024/02/06 07:15:27;;;;;;;11.07;5.40;;;9.90;99.90;;;;;;5032970;28;20352;-70
2024/02/06 07:17:53;;;;;;;6.47;5.20;;;9.90;99.90;;;;;;5029348;28;20210;-65
2024/02/06 07:20:19;;;;;;;10.30;5.70;;;9.90;99.90;;;;;;5031077;28;20579;-70
2024/02/06 07:22:44;;;;;;;7.13;5.00;;;9.80;99.90;;;;;;5031144;28;20650;-71
2024/02/06 07:25:10;;;;;;;9.93;6.07;;;9.80;99.90;;;;;;5028237;28;20198;-69
2024/02/06 07:27:36;;;;;;;9.37;5.70;;;9.80;99.90;;;;;;5026603;28;20194;-68
2024/02/06 07:30:03;;;;;;;9.43;5.67;;;9.90;99.90;;;;;;5029497;28;20280;-70
2024/02/06 07:32:30;;;;;;;12.30;5.80;;;9.80;99.90;;;;;;5029334;28;20559;-69
2024/02/06 07:34:55;;;;;;;10.73;5.90;;;9.90;99.90;;;;;;5030333;28;21088;-70
2024/02/06 07:37:22;;;;;;;8.30;4.70;;;9.90;99.90;;;;;;5029705;28;20468;-70
2024/02/06 07:39:48;;;;;;;9.77;6.93;;;9.90;99.90;;;;;;5030304;28;20640;-70
2024/02/06 07:42:14;;;;;;;7.67;4.87;;;9.90;99.90;;;;;;5028445;28;20435;-69
2024/02/06 07:44:39;;;;;;;7.60;5.90;;;9.90;99.90;;;;;;5032121;28;20552;-68
2024/02/06 07:47:05;;;;;;;11.93;6.00;;;9.90;99.90;;;;;;5030312;28;20200;-70
2024/02/06 07:49:31;;;;;;;11.67;5.90;;;9.80;99.90;;;;;;5032036;28;20538;-68
2024/02/06 07:51:57;;;;;;;7.50;4.83;;;9.90;99.90;;;;;;5032085;28;20217;-71
2024/02/06 07:54:22;;;;;;;8.40;5.13;;;9.90;99.90;;;;;;5031155;28;20273;-70
2024/02/06 07:56:48;;;;;;;6.77;5.10;;;9.80;99.90;;;;;;5030509;28;20210;-69
2024/02/06 07:59:15;;;;;;;8.67;4.90;;;9.90;99.90;;;;;;5031393;28;20182;-65
2024/02/06 08:01:41;;;;;;;9.20;5.10;;;10.00;99.90;;;;;;5031474;28;20712;-66
2024/02/06 08:04:07;;;;;;;7.63;5.27;;;9.90;99.90;;;;;;5031423;28;20440;-69
2024/02/06 08:06:33;;;;;;;9.73;5.60;;;10.00;99.90;;;;;;5030882;28;20580;-65
2024/02/06 08:08:59;;;;;;;9.53;5.63;;;9.90;99.90;;;;;;5031878;28;20483;-68
2024/02/06 08:11:25;;;;;;;9.00;6.17;;;9.90;99.90;;;;;;5031263;28;20463;-71
2024/02/06 08:13:51;;;;;;;6.53;5.03;;;9.90;99.90;;;;;;5031520;28;20527;-70
2024/02/06 08:16:17;;;;;;;9.97;6.10;;;9.90;99.90;;;;;;5030351;28;20186;-71
2024/02/06 08:18:43;;;;;;;11.27;6.03;;;9.90;99.90;;;;;;5030630;28;20198;-69
2024/02/06 08:21:09;;;;;;;10.97;6.37;;;9.90;99.90;;;;;;5028987;28;20503;-67
2024/02/06 08:23:35;;;;;;;8.00;4.67;;;9.90;99.90;;;;;;5031508;28;20424;-71
2024/02/06 08:26:00;;;;;;;9.53;5.30;;;10.00;99.90;;;;;;5030290;28;20204;-68
2024/02/06 08:28:26;;;;;;;6.90;4.80;;;10.00;99.90;;;;;;5029318;28;20647;-67
2024/02/06 08:30:52;;;;;;;10.60;4.53;;;10.00;99.90;;;;;;5030748;28;20190;-67
2024/02/06 08:33:18;;;;;;;9.13;5.77;;;10.00;99.90;;;;;;5029703;28;20182;-69
2024/02/06 08:35:44;;;;;;;8.03;5.97;;;9.90;99.90;;;;;;5030454;28;20420;-69
2024/02/06 08:38:10;;;;;;;8.33;4.83;;;9.90;99.90;;;;;;5028983;28;20237;-68
2024/02/06 08:40:35;;;;;;;11.10;5.00;;;10.00;99.90;;;;;;5029550;28;21235;-69
2024/02/06 08:43:02;;;;;;;5.53;4.40;;;10.10;99.90;;;;;;5028969;28;20189;-69
2024/02/06 08:45:28;;;;;;;6.53;4.10;;;10.10;99.90;;;;;;5028686;28;20240;-69
2024/02/06 08:47:53;;;;;;;11.00;5.23;;;10.00;99.90;;;;;;5028150;28;20448;-70
2024/02/06 08:50:19;;;;;;;9.63;5.23;;;10.10;99.90;;;;;;5027302;28;21119;-67
2024/02/06 08:52:45;;;;;;;4.83;3.70;;;10.10;99.90;;;;;;5029447;28;20217;-68
2024/02/06 08:55:10;;;;;;;6.93;4.60;;;10.10;99.90;;;;;;5028988;28;20178;-69
2024/02/06 08:57:36;;;;;;;8.83;4.57;;;10.10;99.90;;;;;;5029698;28;20802;-71
2024/02/06 09:00:04;;;;;;;9.33;4.17;;;10.10;99.90;;;;;;5030624;28;20676;-70
2024/02/06 09:02:30;;;;;;;9.27;4.77;;;10.10;99.90;;;;;;5028848;28;20430;-71
2024/02/06 09:04:56;;;;;;;10.37;4.33;;;10.20;99.90;;;;;;5029334;28;20516;-66
2024/02/06 09:07:25;;;;;;;6.50;4.20;;;10.10;99.90;;;;;;5029049;28;20443;-71
2024/02/06 09:09:55;;;;;;;10.13;5.40;;;10.10;99.90;;;;;;5030626;28;20425;-71
2024/02/06 09:12:22;;;;;;;14.63;5.40;;;10.20;99.90;;;;;;5027496;28;20437;-70
2024/02/06 09:14:48;;;;;;;10.67;5.60;;;10.20;99.90;;;;;;5031120;28;20934;-69
2024/02/06 09:17:13;;;;;;;6.90;4.50;;;10.20;99.90;;;;;;5029312;28;20463;-68
2024/02/06 09:19:40;;;;;;;11.87;6.37;;;10.20;99.90;;;;;;5029065;28;20697;-67
2024/02/06 09:22:06;;;;;;;12.30;4.77;;;10.20;99.90;;;;;;5029803;28;20185;-65
2024/02/06 09:24:32;;;;;;;10.87;4.93;;;10.20;99.90;;;;;;5029465;28;20495;-67
2024/02/06 09:26:57;;;;;;;12.80;5.13;;;10.20;99.90;;;;;;5029915;28;20428;-68
2024/02/06 09:29:23;;;;;;;7.80;4.23;;;10.20;99.90;;;;;;5028456;28;20178;-71
2024/02/06 09:31:49;;;;;;;9.20;5.10;;;10.20;99.90;;;;;;5029476;28;20622;-68
2024/02/06 09:34:15;;;;;;;8.80;4.23;;;10.20;99.90;;;;;;5030248;28;20435;-66
2024/02/06 09:36:42;;;;;;;9.83;4.90;;;10.30;99.90;;;;;;5029253;28;20421;-69
2024/02/06 09:39:10;;;;;;;7.87;5.03;;;10.30;99.90;;;;;;5030550;28;20707;-70
2024/02/06 09:41:37;;;;;;;10.37;5.50;;;10.30;99.90;;;;;;5028559;28;21337;-71
2024/02/06 09:44:03;;;;;;;8.77;3.83;;;10.40;99.90;;;;;;5029939;28;20974;-69
2024/02/06 09:46:29;;;;;;;8.23;4.63;;;10.30;99.90;;;;;;5043130;28;20446;-73
2024/02/06 09:48:56;;;;;;;7.43;5.30;;;10.30;99.90;;;;;;5029775;28;20439;-67
2024/02/06 09:51:24;;;;;;;8.27;5.17;;;10.30;99.90;;;;;;5027757;28;20347;-67
2024/02/06 09:53:53;;;;;;;8.33;4.23;;;10.30;99.90;;;;;;5029179;28;20425;-66
2024/02/06 09:56:20;;;;;;;9.83;5.00;;;10.30;99.90;;;;;;5034040;28;20440;-70
2024/02/06 09:58:46;;;;;;;8.60;5.00;;;10.20;99.90;;;;;;5033178;28;20472;-68
2024/02/06 10:01:14;;;;;;;7.43;5.63;;;10.20;99.90;;;;;;5033558;28;20567;-69
2024/02/06 10:03:45;;;;;;;6.87;4.13;;;10.20;99.90;;;;;;5031216;28;20425;-68
2024/02/06 10:06:13;;;;;;;8.03;5.27;;;10.20;99.90;;;;;;5032773;28;20433;-67
2024/02/06 10:08:39;;;;;;;9.27;5.53;;;10.20;99.90;;;;;;5032690;28;20436;-72
2024/02/06 10:11:06;;;;;;;7.10;5.70;;;10.20;99.90;;;;;;5034371;28;20424;-72
2024/02/06 10:13:32;;;;;;;8.83;5.93;;;10.20;99.90;;;;;;5033903;28;20211;-70
2024/02/06 10:15:57;;;;;;;8.77;5.90;;;10.20;99.90;;;;;;5033412;28;20810;-69
2024/02/06 10:18:23;;;;;;;9.83;5.23;;;10.20;99.90;;;;;;5033037;28;20547;-70
2024/02/06 10:20:50;;;;;;;8.17;5.60;;;10.30;99.90;;;;;;5032897;28;20178;-66
2024/02/06 10:23:20;;;;;;;9.90;6.00;;;10.20;99.90;;;;;;5033127;28;20959;-68
2024/02/06 10:25:48;;;;;;;7.20;4.50;;;10.20;99.90;;;;;;5031711;28;20424;-69
2024/02/06 10:28:23;;;;;;;9.40;5.30;;;10.20;99.90;;;;;;5032008;28;20433;-70
2024/02/06 10:30:50;;;;;;;11.93;5.07;;;10.30;99.90;;;;;;5031861;28;21279;-67
2024/02/06 10:33:16;;;;;;;6.80;5.07;;;10.30;99.90;;;;;;5033569;28;20431;-67
2024/02/06 10:35:42;;;;;;;11.60;6.20;;;10.20;99.90;;;;;;5031823;28;20436;-67
2024/02/06 10:38:16;;;;;;;12.93;5.60;;;10.20;99.90;;;;;;5033907;28;20541;-69
2024/02/06 10:40:44;;;;;;;16.00;5.70;;;10.30;99.90;;;;;;5031533;28;20943;-67
2024/02/06 10:43:10;;;;;;;10.67;5.80;;;10.30;99.90;;;;;;5032765;28;20421;-72
2024/02/06 10:45:36;;;;;;;11.20;6.30;;;10.30;99.90;;;;;;5030642;28;20519;-72
2024/02/06 10:48:03;;;;;;;8.17;5.30;;;10.30;99.90;;;;;;5032014;28;21173;-73
2024/02/06 10:50:30;;;;;;;9.13;5.50;;;10.30;99.90;;;;;;5030378;28;20489;-70
2024/02/06 10:52:56;;;;;;;11.87;6.57;;;10.30;99.90;;;;;;5031288;28;20463;-68
2024/02/06 10:55:22;;;;;;;10.00;5.60;;;10.30;99.90;;;;;;5031739;28;20440;-69
2024/02/06 10:58:03;;;;;;;6.70;6.00;;;10.30;99.90;;;;;;5061373;28;21344;-68
2024/02/06 11:00:32;;;;;;;9.77;5.67;;;10.30;99.90;;;;;;5031251;28;20515;-73
2024/02/06 11:02:58;;;;;;;13.17;5.77;;;10.30;99.90;;;;;;5030245;28;20519;-67
2024/02/06 11:05:49;;;;;;;11.20;5.80;;;10.30;99.90;;;;;;5030892;28;20436;-70
2024/02/06 11:08:18;;;;;;;10.20;5.37;;;10.30;99.90;;;;;;5031423;28;20582;-68
2024/02/06 11:10:53;;;;;;;7.97;5.40;;;10.30;99.90;;;;;;5030774;28;20468;-72
2024/02/06 11:13:24;;;;;;;8.23;6.37;;;10.30;99.90;;;;;;5032371;28;20519;-71
2024/02/06 11:15:55;;;;;;;10.03;6.10;;;10.20;99.90;;;;;;5030973;28;20502;-67
2024/02/06 11:18:27;;;;;;;12.10;6.47;;;10.20;99.90;;;;;;5030398;28;20473;-73
2024/02/06 11:20:54;;;;;;;11.40;7.10;;;10.30;99.90;;;;;;5029418;28;21032;-67
2024/02/06 11:23:22;;;;;;;9.83;5.40;;;10.30;99.90;;;;;;5030458;28;20426;-66
2024/02/06 11:25:48;;;;;;;12.93;6.00;;;10.30;99.90;;;;;;5028746;28;21051;-69
2024/02/06 11:28:16;;;;;;;8.20;6.03;;;10.30;99.90;;;;;;5029276;28;21017;-68
2024/02/06 11:30:45;;;;;;;12.73;5.27;;;10.30;99.90;;;;;;5029654;28;20475;-67
2024/02/06 11:33:14;;;;;;;13.00;6.07;;;10.40;99.90;;;;;;5045416;28;20502;-68
2024/02/06 11:35:40;;;;;;;9.73;5.10;;;10.40;99.90;;;;;;5030341;28;21116;-67
2024/02/06 11:38:06;;;;;;;9.53;5.63;;;10.50;99.90;;;;;;5029747;28;20464;-68
2024/02/06 11:40:32;;;;;;;8.17;5.23;;;10.50;99.90;;;;;;5030593;28;20503;-67
2024/02/06 11:43:03;;;;;;;8.83;5.90;;;10.50;99.90;;;;;;5030046;28;21385;-68
2024/02/06 11:45:29;;;;;;;9.67;6.27;;;10.50;99.90;;;;;;5030382;28;20420;-73
2024/02/06 11:47:55;;;;;;;8.93;5.67;;;10.50;99.90;;;;;;4990769;28;1110618;-73
2024/02/06 11:50:39;;;;;;;10.90;5.83;;;10.50;99.90;;;;;;5030892;28;20186;-64
2024/02/06 11:53:09;;;;;;;8.80;5.70;;;10.50;99.90;;;;;;5031085;28;20439;-70
2024/02/06 11:55:35;;;;;;;9.20;5.90;;;10.40;99.90;;;;;;5030968;28;20448;-67
2024/02/06 11:58:01;;;;;;;9.37;6.23;;;10.50;99.90;;;;;;5029959;28;20465;-66
2024/02/06 12:00:27;;;;;;;10.97;5.83;;;10.50;99.90;;;;;;5030914;28;20428;-70
2024/02/06 12:02:54;;;;;;;8.53;7.00;;;10.50;99.90;;;;;;5028801;28;20178;-70
2024/02/06 12:05:20;;;;;;;13.07;6.20;;;10.40;99.90;;;;;;5031225;28;20439;-71
2024/02/06 12:07:57;;;;;;;11.00;5.77;;;10.40;99.90;;;;;;5029371;28;20473;-69
2024/02/06 12:10:30;;;;;;;8.00;5.87;;;10.30;99.90;;;;;;5030640;28;20421;-68
2024/02/06 12:13:04;;;;;;;13.97;6.07;;;10.30;99.90;;;;;;5028677;28;20584;-67
2024/02/06 12:15:31;;;;;;;9.77;5.70;;;10.30;99.90;;;;;;5030814;28;20454;-67
2024/02/06 12:17:57;;;;;;;12.07;6.20;;;10.30;99.90;;;;;;5030417;28;20507;-69
2024/02/06 12:20:26;;;;;;;8.97;6.43;;;10.30;99.90;;;;;;5030964;28;20462;-70
2024/02/06 12:23:03;;;;;;;11.10;5.60;;;10.30;99.90;;;;;;5029803;28;20485;-65
2024/02/06 12:25:30;;;;;;;9.87;5.80;;;10.30;99.90;;;;;;5061662;28;20436;-69
2024/02/06 12:28:04;;;;;;;11.70;7.20;;;10.30;99.90;;;;;;5027862;28;20594;-72
2024/02/06 12:30:31;;;;;;;8.93;5.70;;;10.30;99.90;;;;;;5030595;28;20435;-72
2024/02/06 12:33:02;;;;;;;14.77;5.87;;;10.30;99.90;;;;;;5029801;28;20427;-71
2024/02/06 12:35:28;;;;;;;13.20;7.20;;;10.30;99.90;;;;;;5030287;28;20467;-65
2024/02/06 12:37:58;;;;;;;9.37;6.13;;;10.30;99.90;;;;;;5029623;28;20469;-67
2024/02/06 12:40:27;;;;;;;8.40;6.17;;;10.30;99.90;;;;;;5029651;28;20536;-68
2024/02/06 12:42:53;;;;;;;10.50;6.90;;;10.40;99.90;;;;;;5030031;28;20461;-68
2024/02/06 12:45:20;;;;;;;14.97;7.33;;;10.40;99.90;;;;;;5028359;28;20563;-65
2024/02/06 12:47:47;;;;;;;8.27;5.77;;;10.40;99.90;;;;;;5029251;28;20884;-69